createdAt,value
2018-02-02T00:02:18.510Z,12.93
2018-02-02T00:04:49.033Z,10.63
2018-02-02T00:07:18.309Z,10.83
2018-02-02T00:09:47.251Z,16.70
2018-02-02T00:12:16.371Z,20.63
2018-02-02T00:14:45.380Z,17.53
2018-02-02T00:17:15.129Z,15.20
2018-02-02T00:19:44.486Z,15.90
2018-02-02T00:22:13.853Z,15.90
2018-02-02T00:24:42.868Z,16.07
2018-02-02T00:27:12.270Z,14.13
2018-02-02T00:29:41.621Z,13.13
2018-02-02T00:32:10.595Z,12.73
2018-02-02T00:34:39.564Z,19.13
2018-02-02T00:37:08.605Z,17.53
2018-02-02T00:39:37.645Z,19.97
2018-02-02T00:42:06.642Z,12.57
2018-02-02T00:44:36.447Z,13.03
2018-02-02T00:47:05.448Z,15.20
2018-02-02T00:49:35.193Z,11.40
2018-02-02T00:52:04.126Z,14.50
2018-02-02T00:54:33.124Z,14.80
2018-02-02T00:57:02.250Z,16.70
2018-02-02T00:59:31.220Z,11.27
2018-02-02T01:02:01.864Z,14.50
2018-02-02T01:04:31.305Z,11.60
2018-02-02T01:07:00.271Z,13.13
2018-02-02T01:09:29.209Z,13.90
2018-02-02T01:11:58.265Z,14.17
2018-02-02T01:14:27.652Z,12.97
2018-02-02T01:16:56.640Z,13.17
2018-02-02T01:19:25.590Z,15.53
2018-02-02T01:21:54.690Z,12.20
2018-02-02T01:24:23.598Z,15.80
2018-02-02T01:26:52.635Z,14.17
2018-02-02T01:29:21.954Z,12.07
2018-02-02T01:31:50.977Z,17.03
2018-02-02T01:34:19.971Z,14.47
2018-02-02T01:36:48.952Z,14.00
2018-02-02T01:39:17.895Z,16.37
2018-02-02T01:41:46.894Z,11.47
2018-02-02T01:44:15.857Z,9.47
2018-02-02T01:46:45.592Z,12.13
2018-02-02T01:49:14.587Z,13.60
2018-02-02T01:51:43.645Z,11.90
2018-02-02T01:54:12.975Z,12.80
2018-02-02T01:56:42.043Z,12.33
2018-02-02T01:59:10.981Z,16.27
2018-02-02T02:01:39.941Z,15.93
2018-02-02T02:04:08.902Z,11.23
2018-02-02T02:06:38.181Z,11.47
2018-02-02T02:09:08.478Z,11.70
2018-02-02T02:11:37.398Z,13.23
2018-02-02T02:14:06.365Z,14.90
2018-02-02T02:16:35.347Z,15.13
2018-02-02T02:19:04.328Z,14.50
2018-02-02T02:21:33.327Z,16.17
2018-02-02T02:24:02.289Z,13.07
2018-02-02T02:26:32.031Z,15.93
2018-02-02T02:29:01.016Z,13.30
2018-02-02T02:31:30.408Z,19.10
2018-02-02T02:33:59.396Z,13.47
2018-02-02T02:36:29.124Z,15.27
2018-02-02T02:38:58.578Z,12.90
2018-02-02T02:41:28.172Z,15.70
2018-02-02T02:43:57.148Z,14.83
2018-02-02T02:46:26.111Z,25.23
2018-02-02T02:48:55.861Z,14.67
2018-02-02T02:51:25.262Z,12.90
2018-02-02T02:53:55.276Z,18.17
2018-02-02T02:56:24.248Z,18.23
2018-02-02T02:58:53.571Z,15.73
2018-02-02T03:01:23.318Z,18.17
2018-02-02T03:03:52.700Z,15.83
2018-02-02T03:06:22.458Z,16.03
2018-02-02T03:08:51.809Z,16.37
2018-02-02T03:11:20.891Z,20.90
2018-02-02T03:13:49.889Z,16.60
2018-02-02T03:16:18.843Z,15.63
2018-02-02T03:18:47.832Z,14.47
2018-02-02T03:21:16.782Z,21.97
2018-02-02T03:23:46.155Z,18.93
2018-02-02T03:26:15.165Z,14.33
2018-02-02T03:28:44.126Z,18.60
2018-02-02T03:31:13.107Z,16.80
2018-02-02T03:33:42.085Z,17.90
2018-02-02T03:36:11.036Z,15.73
2018-02-02T03:38:40.040Z,16.60
2018-02-02T03:41:09.805Z,18.33
2018-02-02T03:43:38.785Z,17.07
2018-02-02T03:46:07.758Z,13.97
2018-02-02T03:48:36.714Z,16.70
2018-02-02T03:51:06.255Z,16.23
2018-02-02T03:53:35.747Z,17.60
2018-02-02T03:56:04.737Z,17.27
2018-02-02T03:58:33.730Z,17.27
2018-02-02T04:01:03.458Z,15.03
2018-02-02T04:03:32.928Z,17.10
2018-02-02T04:06:01.938Z,14.07
2018-02-02T04:08:31.750Z,14.63
2018-02-02T04:11:01.537Z,17.67
2018-02-02T04:13:30.597Z,14.20
2018-02-02T04:15:59.569Z,14.17
2018-02-02T04:18:28.590Z,18.10
2018-02-02T04:20:57.612Z,14.10
2018-02-02T04:23:27.029Z,14.70
2018-02-02T04:25:56.365Z,15.80
2018-02-02T04:28:25.340Z,14.00
2018-02-02T04:30:54.272Z,16.30
2018-02-02T04:33:24.089Z,14.57
2018-02-02T04:35:53.553Z,17.63
2018-02-02T04:38:22.627Z,17.43
2018-02-02T04:40:51.694Z,15.63
2018-02-02T04:43:20.690Z,17.33
2018-02-02T04:45:49.683Z,17.63
2018-02-02T04:48:18.762Z,17.57
2018-02-02T04:50:47.795Z,16.30
2018-02-02T04:53:16.730Z,18.40
2018-02-02T04:55:45.737Z,18.07
2018-02-02T04:58:14.692Z,18.60
2018-02-02T05:00:44.037Z,22.80
2018-02-02T05:03:13.208Z,17.87
2018-02-02T05:05:42.161Z,20.33
2018-02-02T05:08:11.931Z,16.60
2018-02-02T05:10:41.682Z,16.17
2018-02-02T05:13:11.392Z,14.53
2018-02-02T05:15:41.211Z,17.27
2018-02-02T05:18:10.706Z,20.30
2018-02-02T05:20:39.665Z,20.40
2018-02-02T05:23:08.655Z,17.80
2018-02-02T05:25:37.644Z,22.07
2018-02-02T05:28:07.392Z,17.57
2018-02-02T05:30:37.164Z,18.87
2018-02-02T05:33:06.141Z,16.80
2018-02-02T05:35:35.147Z,17.20
2018-02-02T05:38:04.905Z,19.17
2018-02-02T05:40:34.247Z,18.17
2018-02-02T05:43:03.291Z,17.60
2018-02-02T05:45:32.700Z,16.80
2018-02-02T05:48:01.656Z,18.67
2018-02-02T05:50:30.635Z,17.90
2018-02-02T05:53:00.373Z,20.43
2018-02-02T05:55:29.352Z,18.73
2018-02-02T05:57:58.346Z,16.80
2018-02-02T06:00:28.109Z,17.27
2018-02-02T06:02:57.071Z,20.53
2018-02-02T06:05:26.704Z,18.17
2018-02-02T06:07:55.673Z,20.47
2018-02-02T06:10:25.395Z,19.03
2018-02-02T06:12:55.144Z,21.93
2018-02-02T06:15:24.612Z,20.80
2018-02-02T06:17:53.504Z,22.40
2018-02-02T06:20:22.537Z,21.50
2018-02-02T06:22:51.487Z,19.33
2018-02-02T06:25:20.922Z,22.43
2018-02-02T06:27:51.043Z,21.03
2018-02-02T06:30:22.159Z,22.93
2018-02-02T06:32:51.128Z,23.40
2018-02-02T06:35:20.510Z,24.37
2018-02-02T06:37:49.460Z,24.20
2018-02-02T06:40:21.306Z,18.37
2018-02-02T06:42:50.383Z,23.90
2018-02-02T06:45:19.777Z,20.07
2018-02-02T06:47:49.496Z,21.77
2018-02-02T06:50:19.264Z,25.00
2018-02-02T06:52:48.673Z,23.60
2018-02-02T06:55:19.190Z,23.60
2018-02-02T06:57:48.245Z,22.60
2018-02-02T07:00:17.886Z,22.37
2018-02-02T07:02:47.643Z,23.53
2018-02-02T07:05:17.369Z,23.17
2018-02-02T07:07:46.396Z,22.73
2018-02-02T07:10:15.765Z,21.90
2018-02-02T07:12:45.252Z,24.03
2018-02-02T07:15:14.960Z,27.03
2018-02-02T07:17:44.767Z,21.70
2018-02-02T07:20:15.238Z,19.90
2018-02-02T07:22:44.613Z,20.63
2018-02-02T07:25:13.597Z,26.17
2018-02-02T07:27:42.789Z,24.33
2018-02-02T07:30:12.518Z,25.10
2018-02-02T07:32:42.265Z,24.77
2018-02-02T07:35:11.204Z,23.37
2018-02-02T07:37:40.977Z,25.13
2018-02-02T07:40:11.648Z,30.10
2018-02-02T07:42:41.381Z,25.60
2018-02-02T07:45:11.030Z,22.37
2018-02-02T07:47:40.040Z,24.63
2018-02-02T07:50:09.043Z,24.27
2018-02-02T07:52:38.759Z,28.33
2018-02-02T07:55:07.757Z,24.20
2018-02-02T07:57:37.210Z,22.97
2018-02-02T08:00:06.599Z,25.20
2018-02-02T08:02:35.949Z,26.73
2018-02-02T08:05:06.346Z,26.30
2018-02-02T08:07:35.298Z,35.00
2018-02-02T08:10:05.050Z,25.30
2018-02-02T08:12:34.813Z,22.47
2018-02-02T08:15:05.384Z,22.67
2018-02-02T08:17:34.836Z,25.87
2018-02-02T08:20:05.600Z,21.80
2018-02-02T08:22:34.600Z,26.40
2018-02-02T08:25:03.549Z,24.93
2018-02-02T08:27:35.511Z,24.83
2018-02-02T08:30:04.994Z,23.00
2018-02-02T08:32:33.963Z,23.83
2018-02-02T08:35:03.672Z,26.30
2018-02-02T08:37:32.663Z,23.10
2018-02-02T08:40:01.611Z,19.43
2018-02-02T08:42:30.568Z,22.80
2018-02-02T08:44:59.542Z,22.90
2018-02-02T08:47:28.516Z,22.87
2018-02-02T08:49:57.444Z,21.10
2018-02-02T08:52:27.206Z,21.10
2018-02-02T08:54:56.153Z,22.90
2018-02-02T08:57:25.554Z,20.33
2018-02-02T08:59:54.572Z,18.60
2018-02-02T09:02:23.542Z,20.07
2018-02-02T09:04:53.268Z,22.60
2018-02-02T09:07:22.406Z,17.97
2018-02-02T09:09:51.452Z,19.43
2018-02-02T09:12:21.157Z,16.83
2018-02-02T09:14:50.977Z,18.87
2018-02-02T09:17:19.982Z,17.57
2018-02-02T09:19:48.980Z,21.67
2018-02-02T09:22:18.047Z,19.30
2018-02-02T09:24:47.000Z,21.47
2018-02-02T09:27:15.928Z,17.53
2018-02-02T09:29:44.900Z,16.10
2018-02-02T09:32:13.869Z,21.93
2018-02-02T09:34:42.836Z,19.03
2018-02-02T09:37:12.212Z,16.60
2018-02-02T09:39:41.942Z,19.60
2018-02-02T09:42:11.346Z,15.15
2018-02-02T09:44:40.336Z,18.03
2018-02-02T09:47:09.353Z,16.00
2018-02-02T09:49:38.361Z,15.10
2018-02-02T09:52:07.304Z,15.23
2018-02-02T09:54:36.395Z,14.87
2018-02-02T09:57:06.132Z,14.60
2018-02-02T09:59:35.873Z,11.37
2018-02-02T10:02:04.857Z,13.27
2018-02-02T10:04:33.834Z,14.50
2018-02-02T10:07:02.802Z,11.33
2018-02-02T10:09:31.746Z,12.27
2018-02-02T10:12:00.780Z,10.33
2018-02-02T10:14:29.769Z,12.57
2018-02-02T10:16:59.514Z,9.97
2018-02-02T10:19:28.985Z,11.53
2018-02-02T10:21:58.701Z,9.57
2018-02-02T10:24:27.654Z,8.67
2018-02-02T10:26:56.621Z,8.13
2018-02-02T10:29:25.569Z,11.30
2018-02-02T10:31:54.937Z,8.00
2018-02-02T10:34:23.983Z,9.20
2018-02-02T10:36:52.938Z,15.97
2018-02-02T10:39:22.674Z,8.87
2018-02-02T10:41:51.624Z,10.40
2018-02-02T10:44:20.802Z,9.27
2018-02-02T10:46:49.763Z,6.67
2018-02-02T10:49:18.822Z,7.90
2018-02-02T10:51:48.561Z,8.80
2018-02-02T10:54:17.506Z,12.90
2018-02-02T10:56:46.479Z,5.97
2018-02-02T10:59:15.423Z,8.20
2018-02-02T11:01:44.460Z,7.43
2018-02-02T11:04:13.411Z,7.10
2018-02-02T11:06:42.461Z,5.90
2018-02-02T11:09:11.407Z,4.17
2018-02-02T11:11:40.388Z,5.20
2018-02-02T11:14:10.091Z,5.13
2018-02-02T11:16:39.792Z,4.60
2018-02-02T11:19:09.601Z,8.77
2018-02-02T11:21:39.308Z,4.57
2018-02-02T11:24:09.037Z,4.37
2018-02-02T11:26:38.768Z,4.07
2018-02-02T11:29:07.697Z,6.30
2018-02-02T11:31:36.672Z,5.80
2018-02-02T11:34:05.646Z,3.10
2018-02-02T11:36:34.583Z,6.40
2018-02-02T11:39:03.535Z,4.37
2018-02-02T11:41:32.598Z,3.10
2018-02-02T11:44:02.349Z,3.17
2018-02-02T11:46:31.265Z,4.10
2018-02-02T11:49:00.234Z,5.57
2018-02-02T11:51:29.942Z,4.67
2018-02-02T11:53:58.906Z,6.50
2018-02-02T11:56:27.968Z,3.90
2018-02-02T11:58:56.961Z,2.10
2018-02-02T12:01:25.910Z,2.33
2018-02-02T12:03:55.178Z,2.27
2018-02-02T12:06:24.658Z,3.40
2018-02-02T12:08:53.979Z,2.00
2018-02-02T12:11:22.948Z,3.17
2018-02-02T12:13:52.729Z,5.20
2018-02-02T12:16:21.676Z,1.87
2018-02-02T12:18:50.647Z,2.70
2018-02-02T12:21:20.045Z,2.33
2018-02-02T12:23:49.309Z,1.50
2018-02-02T12:29:37.559Z,2.10
2018-02-02T12:32:12.800Z,3.33
2018-02-02T12:34:53.530Z,1.30
2018-02-02T12:37:22.932Z,1.20
2018-02-02T12:39:51.876Z,4.50
2018-02-02T12:42:21.268Z,1.03
2018-02-02T12:44:50.307Z,2.40
2018-02-02T12:47:20.062Z,2.30
2018-02-02T12:50:00.987Z,6.53
2018-02-02T12:52:29.918Z,3.37
2018-02-02T12:54:58.916Z,1.53
2018-02-02T12:57:27.884Z,2.70
2018-02-02T12:59:56.897Z,1.93
2018-02-02T13:02:26.621Z,3.40
2018-02-02T13:04:55.557Z,2.60
2018-02-02T13:07:25.279Z,3.13
2018-02-02T13:09:54.232Z,1.90
2018-02-02T13:12:24.000Z,2.70
2018-02-02T13:14:53.025Z,2.23
2018-02-02T13:17:21.993Z,2.20
2018-02-02T13:19:50.910Z,3.60
2018-02-02T13:22:19.852Z,1.70
2018-02-02T13:24:48.941Z,2.63
2018-02-02T13:27:18.680Z,3.63
2018-02-02T13:29:47.600Z,2.90
2018-02-02T13:32:16.590Z,1.60
2018-02-02T13:38:01.763Z,1.90
2018-02-02T13:40:30.698Z,2.10
2018-02-02T13:42:59.637Z,3.80
2018-02-02T13:45:29.363Z,1.80
2018-02-02T13:47:58.331Z,2.27
2018-02-02T13:50:28.077Z,1.47
2018-02-02T13:52:57.771Z,4.57
2018-02-02T13:55:27.511Z,3.90
2018-02-02T13:57:57.213Z,1.73
2018-02-02T14:00:26.971Z,4.10
2018-02-02T14:02:55.918Z,2.50
2018-02-02T14:05:25.673Z,3.57
2018-02-02T14:07:54.601Z,2.73
2018-02-02T14:10:24.321Z,3.40
2018-02-02T14:12:53.296Z,10.10
2018-02-02T14:15:22.268Z,3.13
2018-02-02T14:17:51.228Z,3.53
2018-02-02T14:20:20.172Z,2.70
2018-02-02T14:22:49.311Z,6.07
2018-02-02T14:25:18.237Z,5.53
2018-02-02T14:27:47.240Z,7.20
2018-02-02T14:30:17.573Z,3.33
2018-02-02T14:32:46.524Z,3.90
2018-02-02T14:35:15.487Z,5.40
2018-02-02T14:37:45.379Z,5.43
2018-02-02T14:40:14.365Z,5.57
2018-02-02T14:42:45.311Z,10.30
2018-02-02T14:45:14.281Z,4.93
2018-02-02T14:47:43.238Z,5.00
2018-02-02T14:50:12.583Z,5.27
2018-02-02T14:52:41.816Z,3.27
2018-02-02T14:55:10.883Z,3.20
2018-02-02T14:57:39.850Z,7.17
2018-02-02T15:00:08.835Z,7.00
2018-02-02T15:02:38.191Z,5.60
2018-02-02T15:05:07.422Z,4.30
2018-02-02T15:07:37.151Z,3.63
2018-02-02T15:10:06.408Z,5.83
2018-02-02T15:12:35.647Z,4.20
2018-02-02T15:15:04.609Z,5.00
2018-02-02T15:17:34.660Z,1.50
2018-02-02T15:20:04.915Z,4.07
2018-02-02T15:22:35.593Z,2.40
2018-02-02T15:25:05.139Z,2.17
2018-02-02T15:27:34.071Z,2.10
2018-02-02T15:30:04.699Z,3.63
2018-02-02T15:32:33.795Z,5.87
2018-02-02T15:35:03.413Z,1.83
2018-02-02T15:37:32.334Z,3.37
2018-02-02T15:40:01.359Z,5.80
2018-02-02T15:42:30.309Z,4.53
2018-02-02T15:44:59.653Z,6.20
2018-02-02T15:47:28.600Z,4.77
2018-02-02T15:49:58.332Z,2.80
2018-02-02T15:52:27.300Z,6.57
2018-02-02T15:54:56.272Z,3.63
2018-02-02T15:57:25.608Z,9.80
2018-02-02T15:59:54.539Z,7.17
2018-02-02T16:02:23.525Z,3.60
2018-02-02T16:04:53.263Z,5.73
2018-02-02T16:07:22.231Z,7.33
2018-02-02T16:09:51.504Z,7.20
2018-02-02T16:12:20.474Z,5.20
2018-02-02T16:14:49.418Z,6.57
2018-02-02T16:17:18.401Z,3.17
2018-02-02T16:19:48.097Z,6.37
2018-02-02T16:22:17.457Z,2.27
2018-02-02T16:24:46.469Z,5.67
2018-02-02T16:27:15.445Z,3.83
2018-02-02T16:29:44.561Z,1.83
2018-02-02T16:32:14.345Z,2.60
2018-02-02T16:34:43.346Z,3.43
2018-02-02T16:37:12.392Z,4.07
2018-02-02T16:39:41.633Z,5.00
2018-02-02T16:42:10.889Z,9.50
2018-02-02T16:44:39.828Z,6.30
2018-02-02T16:47:08.772Z,10.67
2018-02-02T16:49:37.878Z,6.13
2018-02-02T16:52:06.877Z,3.80
2018-02-02T16:54:36.166Z,8.30
2018-02-02T16:57:05.132Z,3.27
2018-02-02T16:59:34.071Z,3.53
2018-02-02T17:02:03.406Z,8.73
2018-02-02T17:04:32.358Z,4.97
2018-02-02T17:07:01.358Z,6.03
2018-02-02T17:09:31.037Z,5.47
2018-02-02T17:12:00.319Z,3.27
2018-02-02T17:14:29.535Z,5.23
2018-02-02T17:16:58.532Z,7.03
2018-02-02T17:19:27.514Z,9.63
2018-02-02T17:21:56.509Z,9.77
2018-02-02T17:24:25.512Z,6.73
2018-02-02T17:26:54.517Z,5.23
2018-02-02T17:29:23.496Z,4.03
2018-02-02T17:31:52.424Z,6.30
2018-02-02T17:34:21.399Z,4.67
2018-02-02T17:36:51.108Z,5.03
2018-02-02T17:39:20.850Z,7.53
2018-02-02T17:41:49.813Z,10.00
2018-02-02T17:44:19.556Z,4.60
2018-02-02T17:46:48.573Z,5.57
2018-02-02T17:49:17.979Z,4.33
2018-02-02T17:51:46.941Z,7.90
2018-02-02T17:54:15.899Z,7.30
2018-02-02T17:56:45.627Z,7.53
2018-02-02T17:59:14.603Z,5.83
2018-02-02T18:02:00.077Z,6.17
2018-02-02T18:04:29.861Z,12.00
2018-02-02T18:06:58.840Z,10.57
2018-02-02T18:09:28.589Z,9.50
2018-02-02T18:11:58.317Z,8.73
2018-02-02T18:14:27.723Z,7.30
2018-02-02T18:16:56.744Z,6.40
2018-02-02T18:19:26.524Z,6.53
2018-02-02T18:21:55.498Z,7.00
2018-02-02T18:24:25.470Z,6.70
2018-02-02T18:26:54.948Z,5.37
2018-02-02T18:29:25.045Z,9.13
2018-02-02T18:31:54.803Z,8.33
2018-02-02T18:34:23.791Z,6.03
2018-02-02T18:36:53.606Z,7.77
2018-02-02T18:39:23.318Z,7.40
2018-02-02T18:41:52.298Z,6.83
2018-02-02T18:44:21.288Z,10.73
2018-02-02T18:46:50.240Z,7.00
2018-02-02T18:49:19.609Z,8.47
2018-02-02T18:51:48.602Z,7.33
2018-02-02T18:54:17.689Z,12.47
2018-02-02T18:56:46.660Z,9.40
2018-02-02T18:59:15.672Z,8.53
2018-02-02T19:01:45.092Z,8.13
2018-02-02T19:04:14.379Z,8.40
2018-02-02T19:06:43.446Z,11.20
2018-02-02T19:09:12.850Z,12.73
2018-02-02T19:11:42.186Z,13.83
2018-02-02T19:14:11.612Z,12.73
2018-02-02T19:16:41.424Z,8.90
2018-02-02T19:19:11.178Z,13.23
2018-02-02T19:21:40.156Z,9.20
2018-02-02T19:24:09.209Z,9.40
2018-02-02T19:26:38.215Z,13.40
2018-02-02T19:29:08.337Z,10.40
2018-02-02T19:31:39.648Z,11.43
2018-02-02T19:34:10.789Z,17.53
2018-02-02T19:36:39.786Z,8.97
2018-02-02T19:39:08.813Z,12.20
2018-02-02T19:41:37.797Z,10.47
2018-02-02T19:44:07.708Z,8.40
2018-02-02T19:46:36.796Z,6.93
2018-02-02T19:49:05.845Z,10.73
2018-02-02T19:51:35.379Z,14.27
2018-02-02T19:54:04.760Z,13.17
2018-02-02T19:56:34.636Z,10.90
2018-02-02T19:59:04.013Z,12.83
2018-02-02T20:01:34.074Z,12.00
2018-02-02T20:04:03.334Z,12.90
2018-02-02T20:06:33.084Z,10.63
2018-02-02T20:09:13.983Z,14.87
2018-02-02T20:11:43.073Z,13.80
2018-02-02T20:14:12.151Z,17.30
2018-02-02T20:16:42.014Z,15.90
2018-02-02T20:19:11.106Z,16.97
2018-02-02T20:21:40.919Z,19.63
2018-02-02T20:24:10.702Z,13.57
2018-02-02T20:26:40.120Z,15.93
2018-02-02T20:29:09.179Z,15.87
2018-02-02T20:31:38.192Z,13.17
2018-02-02T20:34:08.515Z,15.93
2018-02-02T20:36:37.537Z,14.90
2018-02-02T20:39:07.317Z,13.57
2018-02-02T20:41:36.320Z,18.93
2018-02-02T20:44:05.395Z,16.23
2018-02-02T20:46:34.469Z,14.67
2018-02-02T20:49:03.522Z,16.63
2018-02-02T20:51:33.362Z,16.57
2018-02-02T20:54:04.164Z,13.70
2018-02-02T20:56:33.164Z,15.50
2018-02-02T20:59:02.232Z,15.57
2018-02-02T21:01:31.318Z,15.77
2018-02-02T21:04:00.370Z,14.30
2018-02-02T21:06:29.791Z,12.17
2018-02-02T21:08:59.603Z,13.90
2018-02-02T21:11:29.996Z,17.13
2018-02-02T21:13:59.746Z,11.50
2018-02-02T21:16:28.807Z,16.83
2018-02-02T21:18:58.608Z,13.57
2018-02-02T21:21:28.949Z,15.93
2018-02-02T21:23:57.979Z,11.40
2018-02-02T21:26:27.113Z,13.50
2018-02-02T21:28:56.091Z,13.73
2018-02-02T21:31:25.566Z,12.47
2018-02-02T21:33:54.598Z,12.10
2018-02-02T21:36:23.581Z,11.57
2018-02-02T21:38:53.014Z,12.90
2018-02-02T21:41:22.056Z,11.90
2018-02-02T21:43:51.471Z,12.87
2018-02-02T21:46:21.310Z,14.27
2018-02-02T21:48:51.092Z,12.33
2018-02-02T21:51:20.559Z,20.43
2018-02-02T21:53:49.956Z,12.10
2018-02-02T21:56:18.959Z,13.20
2018-02-02T21:58:49.098Z,12.33
2018-02-02T22:01:18.936Z,13.57
2018-02-02T22:03:50.389Z,13.17
2018-02-02T22:06:19.612Z,14.73
2018-02-02T22:08:49.375Z,13.20
2018-02-02T22:11:18.341Z,13.00
2018-02-02T22:13:47.308Z,11.03
2018-02-02T22:16:17.239Z,12.13
2018-02-02T22:18:46.305Z,11.90
2018-02-02T22:21:16.110Z,11.70
2018-02-02T22:23:45.104Z,15.50
2018-02-02T22:26:14.848Z,9.23
2018-02-02T22:28:44.238Z,10.67
2018-02-02T22:31:13.245Z,10.23
2018-02-02T22:33:42.712Z,13.00
2018-02-02T22:36:12.493Z,14.63
2018-02-02T22:38:41.482Z,13.43
2018-02-02T22:41:10.445Z,10.90
2018-02-02T22:43:39.802Z,10.63
2018-02-02T22:46:09.217Z,7.37
2018-02-02T22:48:38.201Z,10.23
2018-02-02T22:51:07.531Z,10.87
2018-02-02T22:53:36.529Z,6.13
2018-02-02T22:56:06.254Z,12.87
2018-02-02T22:58:35.465Z,13.60
2018-02-02T23:01:04.447Z,9.70
2018-02-02T23:03:33.393Z,11.00
2018-02-02T23:06:02.965Z,8.60
2018-02-02T23:08:31.902Z,9.87
2018-02-02T23:11:01.043Z,7.80
2018-02-02T23:13:29.995Z,12.60
2018-02-02T23:15:58.968Z,11.77
2018-02-02T23:18:28.308Z,9.87
2018-02-02T23:20:57.589Z,8.77
2018-02-02T23:23:26.569Z,6.67
2018-02-02T23:25:55.529Z,13.23
2018-02-02T23:28:24.676Z,8.20
2018-02-02T23:30:53.612Z,11.77
2018-02-02T23:33:22.573Z,9.53
2018-02-02T23:35:51.544Z,4.87
2018-02-02T23:38:20.484Z,6.23
2018-02-02T23:40:49.521Z,12.50
2018-02-02T23:43:18.525Z,8.33
2018-02-02T23:48:11.462Z,4.17
2018-02-02T23:50:41.176Z,9.50
2018-02-02T23:53:10.940Z,5.17
2018-02-02T23:55:39.890Z,7.20
2018-02-02T23:58:09.686Z,8.07
